createdAt,value
2023-03-26T00:01:19.132Z,1.73
2023-03-26T00:03:46.985Z,2.08
2023-03-26T00:06:16.496Z,2.05
2023-03-26T00:08:45.657Z,2.30
2023-03-26T00:11:14.560Z,1.90
2023-03-26T00:13:43.625Z,1.73
2023-03-26T00:16:14.965Z,2.13
2023-03-26T00:18:42.557Z,1.77
2023-03-26T00:21:13.173Z,2.42
2023-03-26T00:23:40.209Z,2.47
2023-03-26T00:26:10.791Z,2.83
2023-03-26T00:28:40.441Z,1.75
2023-03-26T00:31:13.162Z,3.15
2023-03-26T00:33:41.274Z,2.90
2023-03-26T00:36:17.288Z,3.05
2023-03-26T00:38:44.854Z,3.67
2023-03-26T00:41:22.992Z,3.05
2023-03-26T00:43:53.514Z,2.67
2023-03-26T00:46:20.252Z,3.25
2023-03-26T00:48:46.957Z,3.70
2023-03-26T00:51:16.633Z,3.13
2023-03-26T00:53:56.678Z,2.22
2023-03-26T00:56:23.513Z,3.45
2023-03-26T00:58:50.163Z,3.22
2023-03-26T01:01:27.011Z,2.95
2023-03-26T01:04:08.099Z,3.92
2023-03-26T01:06:38.886Z,2.75
2023-03-26T01:09:14.381Z,3.03
2023-03-26T01:14:14.531Z,2.92
2023-03-26T01:16:49.726Z,3.35
2023-03-26T01:19:29.117Z,2.70
2023-03-26T01:21:57.370Z,3.17
2023-03-26T01:24:23.908Z,2.85
2023-03-26T01:26:59.719Z,3.22
2023-03-26T01:29:48.058Z,3.13
2023-03-26T01:32:45.381Z,2.95
2023-03-26T01:35:37.574Z,2.38
2023-03-26T01:38:25.006Z,3.55
2023-03-26T01:41:09.560Z,2.28
2023-03-26T01:44:02.683Z,2.90
2023-03-26T01:46:36.005Z,3.08
2023-03-26T01:49:12.740Z,2.72
2023-03-26T01:51:41.740Z,2.60
2023-03-26T01:54:17.966Z,2.90
2023-03-26T01:57:06.397Z,2.95
2023-03-26T01:59:42.029Z,2.90
2023-03-26T02:02:14.224Z,3.47
2023-03-26T02:04:43.948Z,2.45
2023-03-26T02:07:20.854Z,3.03
2023-03-26T02:09:57.804Z,2.55
2023-03-26T02:12:25.641Z,3.08
2023-03-26T02:14:53.233Z,3.53
2023-03-26T02:17:24.111Z,3.00
2023-03-26T02:19:51.381Z,3.65
2023-03-26T02:22:18.069Z,3.00
2023-03-26T02:24:45.858Z,3.20
2023-03-26T02:27:12.805Z,3.08
2023-03-26T02:29:40.984Z,3.28
2023-03-26T02:32:14.363Z,2.63
2023-03-26T02:34:41.773Z,3.15
2023-03-26T02:37:09.679Z,2.42
2023-03-26T02:39:38.512Z,3.17
2023-03-26T02:42:16.066Z,2.55
2023-03-26T02:44:47.376Z,3.05
2023-03-26T02:47:34.097Z,3.33
2023-03-26T02:50:19.377Z,2.50
2023-03-26T02:53:06.307Z,3.28
2023-03-26T02:55:36.199Z,3.28
2023-03-26T02:58:03.216Z,2.55
2023-03-26T03:00:36.396Z,2.72
2023-03-26T03:03:27.219Z,3.35
2023-03-26T03:06:18.690Z,2.55
2023-03-26T03:08:50.568Z,2.50
2023-03-26T03:11:22.115Z,1.90
2023-03-26T03:13:50.961Z,3.70
2023-03-26T03:16:28.882Z,2.17
2023-03-26T03:18:58.451Z,3.30
2023-03-26T03:21:36.008Z,2.30
2023-03-26T03:24:02.774Z,2.95
2023-03-26T03:26:34.151Z,2.63
2023-03-26T03:29:12.929Z,2.80
2023-03-26T03:31:41.137Z,3.55
2023-03-26T03:34:16.823Z,3.38
2023-03-26T03:36:49.979Z,2.85
2023-03-26T03:39:28.554Z,2.80
2023-03-26T03:41:55.105Z,3.90
2023-03-26T03:44:22.057Z,2.63
2023-03-26T03:46:53.765Z,3.30
2023-03-26T03:49:21.860Z,3.50
2023-03-26T03:51:48.729Z,2.88
2023-03-26T03:54:26.022Z,2.67
2023-03-26T03:57:15.900Z,2.58
2023-03-26T03:59:52.302Z,2.28
2023-03-26T04:02:34.634Z,2.60
2023-03-26T04:05:05.934Z,3.03
2023-03-26T04:07:33.020Z,2.90
2023-03-26T04:10:07.711Z,2.30
2023-03-26T04:12:52.898Z,2.40
2023-03-26T04:15:30.125Z,2.63
2023-03-26T04:17:56.718Z,2.75
2023-03-26T04:20:23.348Z,2.70
2023-03-26T04:22:51.034Z,2.47
2023-03-26T04:25:19.620Z,2.47
2023-03-26T04:27:49.714Z,3.22
2023-03-26T04:30:42.208Z,2.40
2023-03-26T04:33:24.974Z,3.20
2023-03-26T04:35:52.579Z,2.85
2023-03-26T04:38:20.287Z,2.78
2023-03-26T04:40:50.760Z,2.30
2023-03-26T04:43:17.980Z,2.00
2023-03-26T04:46:04.360Z,2.80
2023-03-26T04:48:38.562Z,2.75
2023-03-26T04:51:07.431Z,2.72
2023-03-26T04:53:35.196Z,2.58
2023-03-26T04:56:46.480Z,2.40
2023-03-26T04:59:34.357Z,2.13
2023-03-26T05:02:05.353Z,2.38
2023-03-26T05:04:43.618Z,3.28
2023-03-26T05:07:20.138Z,2.10
2023-03-26T05:09:57.215Z,2.85
2023-03-26T05:12:35.916Z,2.90
2023-03-26T05:15:07.667Z,2.60
2023-03-26T05:17:57.988Z,2.08
2023-03-26T05:20:31.645Z,2.85
2023-03-26T05:22:58.331Z,2.22
2023-03-26T05:25:30.345Z,1.90
2023-03-26T05:27:58.091Z,2.47
2023-03-26T05:30:30.374Z,2.28
2023-03-26T05:33:00.487Z,2.38
2023-03-26T05:35:31.425Z,2.58
2023-03-26T05:37:58.220Z,2.53
2023-03-26T05:40:25.837Z,2.22
2023-03-26T05:42:58.766Z,3.28
2023-03-26T05:45:34.392Z,4.18
2023-03-26T05:48:11.368Z,3.38
2023-03-26T05:50:37.924Z,2.95
2023-03-26T05:53:04.513Z,3.15
2023-03-26T05:55:59.662Z,2.92
2023-03-26T05:58:44.639Z,2.67
2023-03-26T06:01:29.412Z,2.22
2023-03-26T06:04:22.353Z,2.50
2023-03-26T06:07:24.532Z,2.95
2023-03-26T06:10:08.278Z,2.28
2023-03-26T06:12:35.234Z,2.22
2023-03-26T06:15:01.785Z,3.00
2023-03-26T06:17:43.914Z,2.53
2023-03-26T06:20:19.706Z,3.30
2023-03-26T06:22:48.465Z,3.72
2023-03-26T06:25:33.436Z,4.45
2023-03-26T06:28:15.917Z,3.80
2023-03-26T06:31:01.487Z,3.97
2023-03-26T06:33:51.249Z,2.92
2023-03-26T06:36:17.887Z,3.13
2023-03-26T06:38:48.417Z,4.03
2023-03-26T06:41:15.304Z,3.40
2023-03-26T06:44:02.380Z,3.42
2023-03-26T06:46:47.595Z,3.03
2023-03-26T06:49:42.721Z,2.22
2023-03-26T06:52:28.484Z,2.42
2023-03-26T06:55:15.329Z,2.20
2023-03-26T06:58:00.724Z,2.47
2023-03-26T07:01:05.850Z,2.17
2023-03-26T07:03:51.153Z,2.05
2023-03-26T07:06:36.493Z,2.50
2023-03-26T07:09:21.959Z,2.35
2023-03-26T07:12:20.336Z,2.20
2023-03-26T07:15:10.570Z,2.38
2023-03-26T07:18:03.365Z,1.92
2023-03-26T07:20:33.261Z,2.22
2023-03-26T07:23:00.165Z,2.17
2023-03-26T07:25:43.198Z,2.00
2023-03-26T07:28:39.056Z,2.17
2023-03-26T07:31:45.924Z,2.63
2023-03-26T07:34:36.179Z,2.47
2023-03-26T07:37:35.893Z,1.67
2023-03-26T07:40:58.826Z,1.88
2023-03-26T07:44:15.824Z,2.25
2023-03-26T07:46:54.041Z,2.40
2023-03-26T07:49:35.243Z,3.35
2023-03-26T07:52:15.825Z,2.38
2023-03-26T07:54:45.515Z,2.28
2023-03-26T07:58:08.593Z,2.27
2023-03-26T08:00:56.756Z,2.53
2023-03-26T08:03:45.373Z,2.70
2023-03-26T08:06:36.109Z,2.22
2023-03-26T08:09:27.170Z,2.33
2023-03-26T08:12:27.538Z,2.10
2023-03-26T08:15:12.625Z,1.95
2023-03-26T08:17:59.714Z,2.00
2023-03-26T08:20:44.076Z,1.67
2023-03-26T08:23:25.666Z,2.42
2023-03-26T08:26:24.987Z,2.92
2023-03-26T08:29:24.144Z,2.13
2023-03-26T08:31:50.868Z,2.15
2023-03-26T08:34:17.520Z,2.00
2023-03-26T08:36:44.138Z,1.98
2023-03-26T08:39:10.737Z,2.28
2023-03-26T08:41:58.474Z,2.33
2023-03-26T08:44:47.544Z,2.40
2023-03-26T08:47:46.102Z,2.10
2023-03-26T08:50:39.945Z,1.70
2023-03-26T08:53:27.764Z,2.45
2023-03-26T08:56:41.114Z,2.10
2023-03-26T08:59:54.145Z,2.07
2023-03-26T09:02:47.430Z,2.38
2023-03-26T09:05:41.925Z,2.72
2023-03-26T09:08:39.401Z,2.55
2023-03-26T09:11:42.669Z,1.88
2023-03-26T09:14:30.544Z,2.33
2023-03-26T09:17:00.170Z,2.13
2023-03-26T09:19:45.102Z,2.33
2023-03-26T09:22:42.753Z,1.75
2023-03-26T09:25:28.276Z,2.10
2023-03-26T09:28:25.872Z,2.33
2023-03-26T09:31:17.359Z,2.13
2023-03-26T09:34:22.651Z,1.65
2023-03-26T09:36:57.199Z,2.83
2023-03-26T09:39:34.745Z,1.97
2023-03-26T09:42:09.603Z,2.67
2023-03-26T09:45:03.984Z,2.13
2023-03-26T09:48:05.291Z,1.38
2023-03-26T09:50:40.917Z,1.67
2023-03-26T09:53:27.951Z,1.60
2023-03-26T09:56:20.780Z,1.75
2023-03-26T09:59:08.073Z,1.95
2023-03-26T10:01:43.522Z,1.67
2023-03-26T10:04:33.082Z,1.83
2023-03-26T10:07:15.308Z,1.83
2023-03-26T10:09:56.836Z,0.77
2023-03-26T10:12:39.317Z,1.30
2023-03-26T10:15:19.524Z,0.90
2023-03-26T10:17:58.939Z,1.25
2023-03-26T10:20:28.648Z,0.88
2023-03-26T10:23:04.267Z,0.98
2023-03-26T10:25:33.499Z,0.95
2023-03-26T10:28:27.796Z,0.68
2023-03-26T10:31:16.829Z,0.28
2023-03-26T10:33:43.284Z,0.20
2023-03-26T10:36:36.955Z,0.20
2023-03-26T10:39:42.321Z,0.20
2023-03-26T10:42:13.809Z,0.20
2023-03-26T10:44:59.323Z,0.20
2023-03-26T10:47:47.215Z,0.20
2023-03-26T10:50:32.122Z,0.20
2023-03-26T10:53:13.895Z,0.20
2023-03-26T10:55:45.517Z,0.20
2023-03-26T10:58:20.394Z,0.20
2023-03-26T11:00:56.667Z,0.17
2023-03-26T11:03:39.882Z,0.20
2023-03-26T11:06:25.323Z,0.15
2023-03-26T11:09:16.179Z,0.20
2023-03-26T11:12:00.459Z,0.20
2023-03-26T11:14:39.659Z,0.20
2023-03-26T11:17:39.722Z,0.20
2023-03-26T11:20:15.843Z,0.20
2023-03-26T11:22:51.270Z,0.20
2023-03-26T11:28:04.949Z,0.20
2023-03-26T11:30:43.282Z,0.20
2023-03-26T11:33:32.809Z,0.20
2023-03-26T11:36:07.077Z,0.10
2023-03-26T11:38:46.706Z,0.20
2023-03-26T11:41:26.732Z,0.20
2023-03-26T11:44:24.507Z,0.20
2023-03-26T11:46:58.479Z,0.17
2023-03-26T11:49:26.313Z,0.20
2023-03-26T11:51:53.386Z,0.13
2023-03-26T11:54:20.944Z,0.20
2023-03-26T11:57:04.732Z,0.20
2023-03-26T12:00:07.733Z,0.20
2023-03-26T12:02:41.460Z,0.20
2023-03-26T12:05:14.650Z,0.20
2023-03-26T12:07:52.247Z,0.20
2023-03-26T12:10:28.721Z,0.20
2023-03-26T12:13:01.690Z,0.20
2023-03-26T12:15:30.727Z,0.20
2023-03-26T12:17:58.790Z,0.20
2023-03-26T12:20:25.363Z,0.20
2023-03-26T12:22:59.248Z,0.73
2023-03-26T12:25:32.631Z,0.20
2023-03-26T12:28:03.784Z,0.20
2023-03-26T12:30:42.217Z,0.20
2023-03-26T12:33:38.876Z,0.20
2023-03-26T12:36:29.009Z,0.20
2023-03-26T12:39:17.027Z,0.20
2023-03-26T12:44:42.157Z,0.15
2023-03-26T12:44:53.470Z,0.20
2023-03-26T12:47:59.070Z,0.20
2023-03-26T12:50:15.978Z,0.20
2023-03-26T12:53:12.345Z,0.30
2023-03-26T12:55:52.664Z,0.10
2023-03-26T12:58:44.836Z,0.20
2023-03-26T13:01:41.911Z,0.20
2023-03-26T13:04:36.097Z,0.20
2023-03-26T13:07:21.617Z,0.20
2023-03-26T13:09:53.864Z,0.47
2023-03-26T13:12:43.854Z,0.20
2023-03-26T13:15:22.020Z,0.30
2023-03-26T13:18:00.333Z,0.22
2023-03-26T13:20:51.571Z,0.20
2023-03-26T13:23:42.652Z,0.20
2023-03-26T13:26:46.815Z,0.20
2023-03-26T13:29:56.205Z,0.20
2023-03-26T13:32:34.133Z,0.13
2023-03-26T13:35:08.518Z,0.20
2023-03-26T13:38:06.050Z,0.20
2023-03-26T13:40:32.544Z,0.20
2023-03-26T13:43:32.689Z,0.20
2023-03-26T13:46:16.419Z,0.20
2023-03-26T13:48:53.191Z,0.20
2023-03-26T13:51:44.415Z,0.20
2023-03-26T13:54:37.052Z,0.20
2023-03-26T13:57:11.342Z,0.20
2023-03-26T13:59:44.003Z,0.20
2023-03-26T14:02:17.982Z,0.10
2023-03-26T14:04:52.393Z,0.20
2023-03-26T14:07:25.444Z,0.20
2023-03-26T14:09:58.700Z,0.20
2023-03-26T14:12:37.001Z,0.20
2023-03-26T14:15:14.595Z,0.10
2023-03-26T14:17:48.025Z,0.20
2023-03-26T14:20:17.742Z,0.20
2023-03-26T14:23:06.159Z,0.20
2023-03-26T14:26:10.097Z,0.20
2023-03-26T14:28:55.153Z,0.20
2023-03-26T14:31:42.914Z,0.60
2023-03-26T14:34:51.919Z,0.15
2023-03-26T14:37:46.336Z,0.22
2023-03-26T14:40:52.030Z,0.10
2023-03-26T14:43:29.863Z,0.20
2023-03-26T14:46:19.487Z,0.20
2023-03-26T14:49:33.554Z,0.20
2023-03-26T14:52:51.967Z,0.15
2023-03-26T14:55:48.495Z,0.30
2023-03-26T14:58:50.120Z,0.32
2023-03-26T15:01:47.758Z,0.28
2023-03-26T15:04:36.934Z,0.20
2023-03-26T15:07:47.785Z,0.20
2023-03-26T15:10:46.920Z,0.20
2023-03-26T15:13:44.672Z,0.15
2023-03-26T15:16:20.157Z,0.20
2023-03-26T15:21:47.135Z,0.20
2023-03-26T15:24:55.766Z,0.20
2023-03-26T15:27:37.528Z,0.20
2023-03-26T15:30:22.516Z,0.20
2023-03-26T15:33:12.197Z,0.20
2023-03-26T15:36:04.910Z,0.30
2023-03-26T15:38:59.524Z,0.20
2023-03-26T15:41:47.787Z,0.43
2023-03-26T15:44:27.025Z,0.20
2023-03-26T15:46:56.278Z,0.60
2023-03-26T15:49:41.776Z,0.20
2023-03-26T15:52:25.705Z,0.32
2023-03-26T15:54:52.456Z,0.30
2023-03-26T15:57:32.301Z,0.20
2023-03-26T16:00:22.481Z,0.20
2023-03-26T16:03:10.042Z,0.47
2023-03-26T16:06:02.162Z,0.20
2023-03-26T16:09:00.819Z,0.20
2023-03-26T16:11:58.378Z,0.30
2023-03-26T16:14:44.922Z,0.20
2023-03-26T16:17:25.021Z,0.35
2023-03-26T16:20:23.127Z,0.20
2023-03-26T16:23:01.576Z,0.20
2023-03-26T16:25:30.464Z,0.20
2023-03-26T16:28:31.055Z,0.30
2023-03-26T16:31:36.775Z,0.40
2023-03-26T16:34:05.695Z,0.20
2023-03-26T16:36:37.247Z,0.20
2023-03-26T16:39:04.330Z,0.20
2023-03-26T16:41:33.856Z,0.20
2023-03-26T16:44:10.515Z,0.20
2023-03-26T16:46:43.281Z,0.20
2023-03-26T16:49:30.665Z,0.20
2023-03-26T16:52:26.689Z,0.20
2023-03-26T16:55:21.477Z,0.20
2023-03-26T16:58:11.883Z,0.20
2023-03-26T17:00:48.024Z,0.30
2023-03-26T17:03:31.898Z,0.20
2023-03-26T17:06:45.617Z,0.20
2023-03-26T17:09:26.087Z,0.45
2023-03-26T17:11:52.620Z,0.20
2023-03-26T17:14:48.863Z,0.35
2023-03-26T17:17:49.765Z,0.20
2023-03-26T17:20:26.155Z,0.20
2023-03-26T17:23:10.317Z,0.47
2023-03-26T17:25:52.557Z,0.20
2023-03-26T17:28:32.165Z,0.20
2023-03-26T17:31:15.936Z,0.20
2023-03-26T17:33:43.040Z,0.20
2023-03-26T17:36:12.523Z,0.20
2023-03-26T17:38:39.193Z,0.20
2023-03-26T17:41:11.487Z,0.20
2023-03-26T17:43:38.121Z,0.20
2023-03-26T17:46:31.751Z,0.57
2023-03-26T17:49:18.024Z,0.20
2023-03-26T17:52:01.568Z,0.20
2023-03-26T17:54:44.043Z,0.20
2023-03-26T17:57:47.401Z,0.20
2023-03-26T18:00:18.331Z,0.20
2023-03-26T18:02:52.732Z,0.20
2023-03-26T18:05:21.200Z,0.20
2023-03-26T18:08:01.822Z,0.20
2023-03-26T18:10:55.011Z,0.20
2023-03-26T18:13:45.228Z,0.20
2023-03-26T18:16:36.332Z,0.47
2023-03-26T18:19:17.599Z,0.20
2023-03-26T18:21:48.914Z,0.20
2023-03-26T18:24:21.756Z,0.20
2023-03-26T18:27:16.417Z,0.20
2023-03-26T18:30:02.669Z,1.20
2023-03-26T18:32:33.094Z,0.28
2023-03-26T18:35:02.764Z,0.17
2023-03-26T18:37:34.054Z,0.20
2023-03-26T18:40:02.050Z,0.20
2023-03-26T18:42:31.603Z,0.20
2023-03-26T18:45:03.956Z,0.20
2023-03-26T18:47:31.933Z,0.20
2023-03-26T18:49:59.435Z,0.88
2023-03-26T18:52:28.308Z,0.20
2023-03-26T18:54:56.804Z,0.20
2023-03-26T18:57:26.328Z,0.20
2023-03-26T18:59:55.796Z,0.22
2023-03-26T19:02:23.140Z,0.20
2023-03-26T19:04:50.775Z,0.20
2023-03-26T19:07:22.402Z,0.20
2023-03-26T19:09:50.750Z,0.30
2023-03-26T19:12:23.386Z,0.20
2023-03-26T19:15:09.847Z,0.20
2023-03-26T19:17:42.756Z,0.20
2023-03-26T19:20:22.829Z,0.20
2023-03-26T19:22:50.721Z,0.20
2023-03-26T19:25:23.989Z,0.32
2023-03-26T19:27:51.658Z,0.30
2023-03-26T19:30:30.046Z,0.57
2023-03-26T19:33:12.947Z,0.20
2023-03-26T19:35:42.130Z,0.20
2023-03-26T19:38:38.883Z,0.22
2023-03-26T19:41:05.847Z,0.20
2023-03-26T19:43:32.362Z,0.20
2023-03-26T19:46:01.336Z,0.20
2023-03-26T19:48:45.401Z,0.25
2023-03-26T19:51:20.312Z,0.30
2023-03-26T19:53:51.484Z,0.20
2023-03-26T19:56:19.388Z,0.20
2023-03-26T19:58:46.203Z,0.20
2023-03-26T20:01:18.928Z,1.48
2023-03-26T20:03:48.275Z,0.28
2023-03-26T20:06:17.622Z,0.20
2023-03-26T20:08:44.393Z,0.20
2023-03-26T20:11:25.698Z,0.63
2023-03-26T20:13:52.557Z,0.20
2023-03-26T20:16:34.965Z,0.75
2023-03-26T20:19:02.337Z,0.20
2023-03-26T20:21:30.070Z,0.98
2023-03-26T20:23:56.680Z,0.47
2023-03-26T20:26:23.978Z,0.20
2023-03-26T20:28:53.425Z,0.55
2023-03-26T20:31:24.256Z,0.20
2023-03-26T20:33:51.979Z,0.20
2023-03-26T20:36:34.426Z,0.20
2023-03-26T20:39:05.624Z,0.20
2023-03-26T20:41:33.599Z,0.20
2023-03-26T20:44:00.467Z,0.20
2023-03-26T20:46:31.195Z,0.20
2023-03-26T20:48:59.500Z,0.20
2023-03-26T20:51:28.059Z,0.20
2023-03-26T20:53:55.399Z,0.20
2023-03-26T20:56:21.991Z,0.20
2023-03-26T20:58:54.808Z,0.20
2023-03-26T21:01:27.643Z,0.25
2023-03-26T21:03:54.310Z,0.20
2023-03-26T21:06:20.885Z,0.20
2023-03-26T21:08:47.649Z,0.20
2023-03-26T21:11:26.703Z,0.20
2023-03-26T21:14:04.097Z,0.20
2023-03-26T21:16:31.344Z,0.20
2023-03-26T21:18:58.886Z,0.20
2023-03-26T21:21:50.590Z,0.30
2023-03-26T21:25:01.016Z,0.20
2023-03-26T21:28:06.578Z,0.20
2023-03-26T21:30:34.852Z,0.30
2023-03-26T21:33:02.052Z,0.20
2023-03-26T21:35:29.028Z,0.20
2023-03-26T21:37:57.501Z,0.30
2023-03-26T21:40:24.297Z,0.20
2023-03-26T21:42:52.389Z,0.30
2023-03-26T21:45:20.433Z,0.20
2023-03-26T21:47:47.660Z,0.40
2023-03-26T21:50:17.562Z,0.65
2023-03-26T21:52:47.112Z,0.20
2023-03-26T21:55:14.245Z,0.80
2023-03-26T21:58:07.221Z,0.45
2023-03-26T22:00:51.951Z,0.30
2023-03-26T22:03:26.472Z,1.00
2023-03-26T22:06:20.733Z,0.40
2023-03-26T22:08:47.598Z,0.63
2023-03-26T22:11:14.068Z,1.00
2023-03-26T22:13:40.644Z,0.77
2023-03-26T22:16:09.714Z,0.93
2023-03-26T22:18:36.817Z,1.10
2023-03-26T22:21:04.494Z,1.40
2023-03-26T22:23:34.245Z,1.67
2023-03-26T22:26:00.993Z,1.33
2023-03-26T22:28:27.613Z,1.17
2023-03-26T22:30:54.428Z,1.27
2023-03-26T22:33:21.134Z,1.05
2023-03-26T22:35:47.775Z,1.40
2023-03-26T22:38:14.825Z,1.70
2023-03-26T22:40:41.355Z,1.35
2023-03-26T22:43:07.843Z,1.05
2023-03-26T22:45:34.745Z,1.27
2023-03-26T22:48:04.656Z,1.42
2023-03-26T22:50:32.828Z,1.40
2023-03-26T22:52:59.533Z,0.85
2023-03-26T22:55:28.458Z,2.15
2023-03-26T22:57:57.033Z,1.48
2023-03-26T23:00:23.624Z,0.90
2023-03-26T23:02:50.249Z,1.35
2023-03-26T23:05:20.248Z,1.52
2023-03-26T23:07:47.285Z,1.45
2023-03-26T23:10:13.838Z,1.30
2023-03-26T23:12:41.437Z,1.52
2023-03-26T23:15:09.762Z,1.15
2023-03-26T23:17:37.614Z,1.73
2023-03-26T23:20:12.400Z,1.70
2023-03-26T23:22:39.040Z,1.27
2023-03-26T23:25:07.338Z,0.93
2023-03-26T23:27:34.006Z,1.38
2023-03-26T23:30:01.203Z,1.13
2023-03-26T23:32:28.052Z,1.83
2023-03-26T23:34:55.795Z,1.58
2023-03-26T23:37:23.601Z,1.33
2023-03-26T23:39:50.890Z,1.35
2023-03-26T23:42:28.221Z,0.98
2023-03-26T23:44:56.529Z,1.63
2023-03-26T23:47:23.122Z,1.55
2023-03-26T23:49:49.981Z,1.35
2023-03-26T23:52:16.557Z,1.50
2023-03-26T23:54:43.173Z,1.33
2023-03-26T23:57:10.496Z,1.33
2023-03-26T23:59:38.152Z,1.65
